createdAt,value
2024-02-08T00:02:02.642Z,19.13
2024-02-08T00:04:29.286Z,17.75
2024-02-08T00:06:55.968Z,20.27
2024-02-08T00:09:22.530Z,18.60
2024-02-08T00:11:48.998Z,19.00
2024-02-08T00:14:15.462Z,18.20
2024-02-08T00:16:41.910Z,17.67
2024-02-08T00:19:08.415Z,20.75
2024-02-08T00:21:36.595Z,18.85
2024-02-08T00:24:03.294Z,18.42
2024-02-08T00:26:29.883Z,20.52
2024-02-08T00:28:56.368Z,20.55
2024-02-08T00:31:22.915Z,20.45
2024-02-08T00:33:50.768Z,19.90
2024-02-08T00:36:17.316Z,19.67
2024-02-08T00:38:46.481Z,21.30
2024-02-08T00:41:13.013Z,20.48
2024-02-08T00:43:40.252Z,20.38
2024-02-08T00:46:07.549Z,21.10
2024-02-08T00:48:33.925Z,22.08
2024-02-08T00:51:00.492Z,22.65
2024-02-08T00:53:26.929Z,21.45
2024-02-08T00:55:53.453Z,21.90
2024-02-08T00:58:19.985Z,20.02
2024-02-08T01:00:48.735Z,22.85
2024-02-08T01:03:15.491Z,22.15
2024-02-08T01:05:43.353Z,21.38
2024-02-08T01:08:11.886Z,22.02
2024-02-08T01:10:38.490Z,21.13
2024-02-08T01:13:05.667Z,21.77
2024-02-08T01:15:32.084Z,20.50
2024-02-08T01:17:59.796Z,20.33
2024-02-08T01:20:29.395Z,20.67
2024-02-08T01:22:56.166Z,19.23
2024-02-08T01:25:22.741Z,19.52
2024-02-08T01:27:49.259Z,19.90
2024-02-08T01:30:15.740Z,19.40
2024-02-08T01:32:42.406Z,22.08
2024-02-08T01:35:12.241Z,20.30
2024-02-08T01:37:39.969Z,20.67
2024-02-08T01:40:17.663Z,22.10
2024-02-08T01:42:44.912Z,22.50
2024-02-08T01:45:31.573Z,21.35
2024-02-08T01:48:03.626Z,20.85
2024-02-08T01:50:33.928Z,20.33
2024-02-08T01:53:00.831Z,20.13
2024-02-08T01:55:34.015Z,20.02
2024-02-08T01:58:04.917Z,21.50
2024-02-08T02:00:36.394Z,20.00
2024-02-08T02:03:04.697Z,21.45
2024-02-08T02:05:31.245Z,20.58
2024-02-08T02:07:58.756Z,21.00
2024-02-08T02:10:31.016Z,21.65
2024-02-08T02:13:04.383Z,22.88
2024-02-08T02:15:32.950Z,22.17
2024-02-08T02:18:05.074Z,21.83
2024-02-08T02:20:31.589Z,21.70
2024-02-08T02:22:59.894Z,20.58
2024-02-08T02:25:29.778Z,21.08
2024-02-08T02:27:59.745Z,20.55
2024-02-08T02:30:29.633Z,20.38
2024-02-08T02:33:01.031Z,21.15
2024-02-08T02:35:29.834Z,22.05
2024-02-08T02:37:59.966Z,22.63
2024-02-08T02:40:26.520Z,22.27
2024-02-08T02:42:54.147Z,21.38
2024-02-08T02:45:25.131Z,21.98
2024-02-08T02:47:54.691Z,21.63
2024-02-08T02:50:22.614Z,22.20
2024-02-08T02:52:50.455Z,22.27
2024-02-08T02:55:21.308Z,25.05
2024-02-08T02:57:48.433Z,24.55
2024-02-08T03:00:34.866Z,26.17
2024-02-08T03:03:09.994Z,26.45
2024-02-08T03:05:40.882Z,26.45
2024-02-08T03:08:08.077Z,26.45
2024-02-08T03:10:36.045Z,27.83
2024-02-08T03:13:02.560Z,27.98
2024-02-08T03:15:28.992Z,27.92
2024-02-08T03:17:55.516Z,28.13
2024-02-08T03:20:25.549Z,29.95
2024-02-08T03:22:52.487Z,29.10
2024-02-08T03:25:22.750Z,28.77
2024-02-08T03:27:55.310Z,30.02
2024-02-08T03:30:32.055Z,29.27
2024-02-08T03:32:59.957Z,29.63
2024-02-08T03:35:30.975Z,28.85
2024-02-08T03:38:01.818Z,29.85
2024-02-08T03:40:33.611Z,28.70
2024-02-08T03:43:01.489Z,28.63
2024-02-08T03:45:31.456Z,29.30
2024-02-08T03:48:00.210Z,28.63
2024-02-08T03:50:35.071Z,29.00
2024-02-08T03:53:05.534Z,31.92
2024-02-08T03:55:33.019Z,30.30
2024-02-08T03:58:01.646Z,31.67
2024-02-08T04:00:31.440Z,31.27
2024-02-08T04:03:04.958Z,31.67
2024-02-08T04:05:50.228Z,31.55
2024-02-08T04:08:28.679Z,28.25
2024-02-08T04:10:55.787Z,30.63
2024-02-08T04:13:41.340Z,30.42
2024-02-08T04:16:26.168Z,29.38
2024-02-08T04:19:11.419Z,31.20
2024-02-08T04:21:56.200Z,30.65
2024-02-08T04:24:41.437Z,33.83
2024-02-08T04:27:28.742Z,33.45
2024-02-08T04:30:13.546Z,34.08
2024-02-08T04:33:08.955Z,32.50
2024-02-08T04:35:53.790Z,32.25
2024-02-08T04:38:38.583Z,32.28
2024-02-08T04:41:23.337Z,31.67
2024-02-08T04:44:08.414Z,32.50
2024-02-08T04:46:53.255Z,31.98
2024-02-08T04:49:38.584Z,30.92
2024-02-08T04:52:24.196Z,31.20
2024-02-08T04:54:50.670Z,31.25
2024-02-08T04:57:17.047Z,31.73
2024-02-08T04:59:47.570Z,30.73
2024-02-08T05:02:15.226Z,31.58
2024-02-08T05:04:43.101Z,31.63
2024-02-08T05:07:09.812Z,30.95
2024-02-08T05:09:36.526Z,32.22
2024-02-08T05:12:06.845Z,33.03
2024-02-08T05:14:36.241Z,31.73
2024-02-08T05:17:03.268Z,29.80
2024-02-08T05:19:30.049Z,32.33
2024-02-08T05:22:00.998Z,31.15
2024-02-08T05:24:32.927Z,30.88
2024-02-08T05:27:03.224Z,30.05
2024-02-08T05:29:30.221Z,32.92
2024-02-08T05:31:59.340Z,33.92
2024-02-08T05:34:27.256Z,34.92
2024-02-08T05:36:59.393Z,34.70
2024-02-08T05:39:27.572Z,34.88
2024-02-08T05:41:59.605Z,36.20
2024-02-08T05:44:32.440Z,35.70
2024-02-08T05:47:12.078Z,37.45
2024-02-08T05:49:52.421Z,35.42
2024-02-08T05:52:29.804Z,35.88
2024-02-08T05:54:56.413Z,38.17
2024-02-08T05:57:25.835Z,38.72
2024-02-08T06:00:03.679Z,37.80
2024-02-08T06:02:31.578Z,36.13
2024-02-08T06:05:05.988Z,37.03
2024-02-08T06:07:35.631Z,35.53
2024-02-08T06:10:16.978Z,36.10
2024-02-08T06:12:53.749Z,37.28
2024-02-08T06:15:25.564Z,34.83
2024-02-08T06:17:58.971Z,36.38
2024-02-08T06:20:35.024Z,35.20
2024-02-08T06:23:18.078Z,34.13
2024-02-08T06:26:02.643Z,35.63
2024-02-08T06:28:30.399Z,33.28
2024-02-08T06:31:00.191Z,33.15
2024-02-08T06:33:27.189Z,33.17
2024-02-08T06:35:57.746Z,33.75
2024-02-08T06:38:42.691Z,34.67
2024-02-08T06:41:24.866Z,33.42
2024-02-08T06:43:58.771Z,33.38
2024-02-08T06:46:48.828Z,32.42
2024-02-08T06:49:37.238Z,31.13
2024-02-08T06:52:22.605Z,29.20
2024-02-08T06:55:07.523Z,29.80
2024-02-08T06:57:52.571Z,28.92
2024-02-08T07:00:37.694Z,29.38
2024-02-08T07:03:23.447Z,30.15
2024-02-08T07:06:08.168Z,29.20
2024-02-08T07:08:53.041Z,29.77
2024-02-08T07:11:37.792Z,29.20
2024-02-08T07:14:22.445Z,28.95
2024-02-08T07:17:07.266Z,28.90
2024-02-08T07:19:52.445Z,29.33
2024-02-08T07:22:37.251Z,29.73
2024-02-08T07:25:22.637Z,30.42
2024-02-08T07:28:08.949Z,29.70
2024-02-08T07:30:56.051Z,28.95
2024-02-08T07:33:41.805Z,30.35
2024-02-08T07:36:30.432Z,28.92
2024-02-08T07:39:17.157Z,30.27
2024-02-08T07:41:54.844Z,30.05
2024-02-08T07:44:24.242Z,32.78
2024-02-08T07:46:51.317Z,33.15
2024-02-08T07:49:18.406Z,30.75
2024-02-08T07:51:51.626Z,32.25
2024-02-08T07:54:22.805Z,30.80
2024-02-08T07:56:49.378Z,31.23
2024-02-08T07:59:27.685Z,32.22
2024-02-08T08:01:58.890Z,32.13
2024-02-08T08:04:52.834Z,33.72
2024-02-08T08:07:26.617Z,30.98
2024-02-08T08:10:10.135Z,33.58
2024-02-08T08:12:37.204Z,33.28
2024-02-08T08:15:04.134Z,31.67
2024-02-08T08:17:31.066Z,32.28
2024-02-08T08:20:05.162Z,30.83
2024-02-08T08:22:35.540Z,30.65
2024-02-08T08:25:22.152Z,31.20
2024-02-08T08:27:48.768Z,31.77
2024-02-08T08:30:31.489Z,32.20
2024-02-08T08:33:03.057Z,30.75
2024-02-08T08:35:46.901Z,32.47
2024-02-08T08:38:20.425Z,33.42
2024-02-08T08:40:50.951Z,32.78
2024-02-08T08:43:23.685Z,32.88
2024-02-08T08:45:51.775Z,33.35
2024-02-08T08:48:22.984Z,32.47
2024-02-08T08:50:56.273Z,32.40
2024-02-08T08:53:29.369Z,32.72
2024-02-08T08:55:56.736Z,32.78
2024-02-08T08:58:28.897Z,30.42
2024-02-08T09:01:12.733Z,30.20
2024-02-08T09:03:41.061Z,28.65
2024-02-08T09:06:13.819Z,27.67
2024-02-08T09:08:47.220Z,29.27
2024-02-08T09:11:20.394Z,27.83
2024-02-08T09:13:52.740Z,27.35
2024-02-08T09:16:23.295Z,26.25
2024-02-08T09:19:03.716Z,29.02
2024-02-08T09:21:36.451Z,27.48
2024-02-08T09:24:07.925Z,26.60
2024-02-08T09:26:53.413Z,24.98
2024-02-08T09:29:28.628Z,25.58
2024-02-08T09:31:59.600Z,25.67
2024-02-08T09:34:42.304Z,23.98
2024-02-08T09:37:10.416Z,23.30
2024-02-08T09:39:56.639Z,24.50
2024-02-08T09:42:30.716Z,23.23
2024-02-08T09:47:56.192Z,18.88
2024-02-08T09:50:37.180Z,21.95
2024-02-08T09:53:20.470Z,21.88
2024-02-08T09:55:56.836Z,22.88
2024-02-08T09:58:43.286Z,23.00
2024-02-08T10:01:23.990Z,22.02
2024-02-08T10:04:06.094Z,22.30
2024-02-08T10:06:40.446Z,23.10
2024-02-08T10:11:59.358Z,21.15
2024-02-08T10:14:27.113Z,23.33
2024-02-08T10:17:01.931Z,23.50
2024-02-08T10:19:48.757Z,24.95
2024-02-08T10:22:28.253Z,24.98
2024-02-08T10:24:54.997Z,25.05
2024-02-08T10:27:22.603Z,25.52
2024-02-08T10:29:52.076Z,24.85
2024-02-08T10:32:19.929Z,24.80
2024-02-08T10:34:47.530Z,25.48
2024-02-08T10:37:34.537Z,23.63
2024-02-08T10:40:01.938Z,24.25
2024-02-08T10:42:39.336Z,25.15
2024-02-08T10:45:06.693Z,23.65
2024-02-08T10:47:42.317Z,24.98
2024-02-08T10:50:21.123Z,26.33
2024-02-08T10:52:50.404Z,25.77
2024-02-08T10:55:19.835Z,24.80
2024-02-08T10:58:22.281Z,24.77
2024-02-08T11:00:49.103Z,25.05
2024-02-08T11:03:29.401Z,26.63
2024-02-08T11:06:02.824Z,23.90
2024-02-08T11:08:37.944Z,24.20
2024-02-08T11:11:10.916Z,25.40
2024-02-08T11:13:43.579Z,24.95
2024-02-08T11:16:21.632Z,23.85
2024-02-08T11:18:53.941Z,24.10
2024-02-08T11:21:44.874Z,23.60
2024-02-08T11:24:14.446Z,22.38
2024-02-08T11:26:55.852Z,24.45
2024-02-08T11:29:25.336Z,22.92
2024-02-08T11:31:51.843Z,23.98
2024-02-08T11:34:25.514Z,24.83
2024-02-08T11:39:30.872Z,25.38
2024-02-08T11:42:06.606Z,21.80
2024-02-08T11:44:40.732Z,22.38
2024-02-08T11:47:24.770Z,22.23
2024-02-08T11:50:02.333Z,21.42
2024-02-08T11:52:29.983Z,20.38
2024-02-08T11:55:02.918Z,19.73
2024-02-08T11:57:38.366Z,19.90
2024-02-08T12:00:16.487Z,21.52
2024-02-08T12:02:53.379Z,20.23
2024-02-08T12:05:22.281Z,20.42
2024-02-08T12:07:49.695Z,21.65
2024-02-08T12:10:23.211Z,21.30
2024-02-08T12:12:55.877Z,19.75
2024-02-08T12:15:22.835Z,20.33
2024-02-08T12:17:54.071Z,20.67
2024-02-08T12:20:20.735Z,20.92
2024-02-08T12:22:54.673Z,20.95
2024-02-08T12:25:21.510Z,20.42
2024-02-08T12:27:58.750Z,23.00
2024-02-08T12:30:34.712Z,19.95
2024-02-08T12:33:09.772Z,21.10
2024-02-08T12:35:41.484Z,20.33
2024-02-08T12:38:10.254Z,21.17
2024-02-08T12:40:37.039Z,20.60
2024-02-08T12:43:09.106Z,20.27
2024-02-08T12:45:36.498Z,20.50
2024-02-08T12:48:07.818Z,21.30
2024-02-08T12:50:36.348Z,22.67
2024-02-08T12:53:06.944Z,21.92
2024-02-08T12:55:33.455Z,22.70
2024-02-08T12:58:06.653Z,22.42
2024-02-08T13:00:36.757Z,22.07
2024-02-08T13:03:07.689Z,22.10
2024-02-08T13:05:39.439Z,23.25
2024-02-08T13:08:09.561Z,21.52
2024-02-08T13:10:39.676Z,22.35
2024-02-08T13:13:11.295Z,22.20
2024-02-08T13:15:38.399Z,21.58
2024-02-08T13:18:10.921Z,22.65
2024-02-08T13:20:40.822Z,22.60
2024-02-08T13:23:10.710Z,20.60
2024-02-08T13:25:37.677Z,22.27
2024-02-08T13:28:04.698Z,20.83
2024-02-08T13:30:31.681Z,21.65
2024-02-08T13:32:59.706Z,24.50
2024-02-08T13:35:27.441Z,22.48
2024-02-08T13:37:55.860Z,22.10
2024-02-08T13:40:24.565Z,22.73
2024-02-08T13:42:57.218Z,23.98
2024-02-08T13:45:27.042Z,21.58
2024-02-08T13:47:59.226Z,21.95
2024-02-08T13:50:31.501Z,22.95
2024-02-08T13:53:00.193Z,22.98
2024-02-08T13:55:45.477Z,23.30
2024-02-08T13:58:19.474Z,23.27
2024-02-08T14:00:46.061Z,23.90
2024-02-08T14:03:15.898Z,22.98
2024-02-08T14:05:51.901Z,22.92
2024-02-08T14:08:19.569Z,23.83
2024-02-08T14:10:46.483Z,22.60
2024-02-08T14:13:17.758Z,24.08
2024-02-08T14:15:49.565Z,24.42
2024-02-08T14:18:28.699Z,23.25
2024-02-08T14:21:02.382Z,23.67
2024-02-08T14:23:38.371Z,23.02
2024-02-08T14:26:09.360Z,25.08
2024-02-08T14:28:44.095Z,23.98
2024-02-08T14:31:11.430Z,22.60
2024-02-08T14:33:42.464Z,23.42
2024-02-08T14:36:11.384Z,22.33
2024-02-08T14:38:46.887Z,24.02
2024-02-08T14:41:27.793Z,23.30
2024-02-08T14:43:56.077Z,23.63
2024-02-08T14:46:27.283Z,23.85
2024-02-08T14:48:55.157Z,22.63
2024-02-08T14:51:24.788Z,24.70
2024-02-08T14:53:55.135Z,23.50
2024-02-08T14:56:22.229Z,24.88
2024-02-08T14:59:08.777Z,23.92
2024-02-08T15:01:43.116Z,22.80
2024-02-08T15:04:23.187Z,26.52
2024-02-08T15:07:06.925Z,24.08
2024-02-08T15:09:37.510Z,24.50
2024-02-08T15:12:05.751Z,24.23
2024-02-08T15:14:39.343Z,24.30
2024-02-08T15:17:11.852Z,25.23
2024-02-08T15:20:38.759Z,26.00
2024-02-08T15:23:41.695Z,26.45
2024-02-08T15:27:07.020Z,26.02
2024-02-08T15:29:44.280Z,26.45
2024-02-08T15:32:20.026Z,26.52
2024-02-08T15:35:00.938Z,26.92
2024-02-08T15:37:28.097Z,26.42
2024-02-08T15:39:54.953Z,26.90
2024-02-08T15:42:33.356Z,28.88
2024-02-08T15:45:00.611Z,30.52
2024-02-08T15:47:30.152Z,26.67
2024-02-08T15:49:57.640Z,29.92
2024-02-08T15:52:35.775Z,28.38
2024-02-08T15:55:16.381Z,28.50
2024-02-08T15:57:52.695Z,29.52
2024-02-08T16:00:34.810Z,31.92
2024-02-08T16:03:04.022Z,30.40
2024-02-08T16:05:36.162Z,32.75
2024-02-08T16:08:07.357Z,32.15
2024-02-08T16:10:34.030Z,32.28
2024-02-08T16:13:07.503Z,32.10
2024-02-08T16:15:53.956Z,32.13
2024-02-08T16:18:27.483Z,30.13
2024-02-08T16:23:45.429Z,29.33
2024-02-08T16:26:14.657Z,30.02
2024-02-08T16:28:51.127Z,31.17
2024-02-08T16:31:18.077Z,31.55
2024-02-08T16:33:54.434Z,32.22
2024-02-08T16:36:35.239Z,34.00
2024-02-08T16:39:09.364Z,34.28
2024-02-08T16:41:50.010Z,35.30
2024-02-08T16:44:23.694Z,33.67
2024-02-08T16:46:56.785Z,35.07
2024-02-08T16:49:32.035Z,34.15
2024-02-08T16:52:05.400Z,36.60
2024-02-08T16:54:35.274Z,40.30
2024-02-08T16:57:07.754Z,50.47
2024-02-08T16:59:49.484Z,145.02
2024-02-08T17:02:40.368Z,256.33
2024-02-08T17:05:13.527Z,246.13
2024-02-08T17:07:46.345Z,389.15
2024-02-08T17:10:37.447Z,512.33
2024-02-08T17:13:17.397Z,464.35
2024-02-08T17:16:00.785Z,636.05
2024-02-08T17:18:35.179Z,626.25
2024-02-08T17:21:28.296Z,633.83
2024-02-08T17:24:02.925Z,681.08
2024-02-08T17:26:37.701Z,655.50
2024-02-08T17:29:33.383Z,628.65
2024-02-08T17:31:59.763Z,632.97
2024-02-08T17:34:28.384Z,690.60
2024-02-08T17:36:55.938Z,712.10
2024-02-08T17:39:26.307Z,637.75
2024-02-08T17:41:53.455Z,618.58
2024-02-08T17:44:31.024Z,757.80
2024-02-08T17:47:01.206Z,430.00
2024-02-08T17:49:27.981Z,360.77
2024-02-08T17:51:57.761Z,328.85
2024-02-08T17:54:32.882Z,307.17
2024-02-08T17:57:02.996Z,267.52
2024-02-08T17:59:30.517Z,170.80
2024-02-08T18:02:15.749Z,216.07
2024-02-08T18:07:14.136Z,477.35
2024-02-08T18:09:45.246Z,171.40
2024-02-08T18:12:34.955Z,207.13
2024-02-08T18:15:14.073Z,77.13
2024-02-08T18:17:46.437Z,83.13
2024-02-08T18:20:16.845Z,83.13
2024-02-08T18:22:49.752Z,94.15
2024-02-08T18:25:29.882Z,181.20
2024-02-08T18:28:00.964Z,118.00
2024-02-08T18:30:30.023Z,77.93
2024-02-08T18:33:05.101Z,82.53
2024-02-08T18:35:36.368Z,99.50
2024-02-08T18:38:09.565Z,178.98
2024-02-08T18:40:37.760Z,86.95
2024-02-08T18:43:05.279Z,83.35
2024-02-08T18:45:35.760Z,101.03
2024-02-08T18:48:02.389Z,106.82
2024-02-08T18:50:31.961Z,87.75
2024-02-08T18:53:07.591Z,84.32
2024-02-08T18:55:40.403Z,80.95
2024-02-08T18:58:10.251Z,124.20
2024-02-08T19:00:38.361Z,116.53
2024-02-08T19:03:08.844Z,160.75
2024-02-08T19:05:43.673Z,146.77
2024-02-08T19:08:19.627Z,150.15
2024-02-08T19:10:53.834Z,151.35
2024-02-08T19:13:28.686Z,155.57
2024-02-08T19:16:09.252Z,159.95
2024-02-08T19:18:45.368Z,155.07
2024-02-08T19:21:16.344Z,177.95
2024-02-08T19:23:45.753Z,189.57
2024-02-08T19:26:22.865Z,255.15
2024-02-08T19:28:50.118Z,198.73
2024-02-08T19:31:16.622Z,242.52
2024-02-08T19:33:46.456Z,230.40
2024-02-08T19:36:23.270Z,253.15
2024-02-08T19:38:56.649Z,243.73
2024-02-08T19:41:24.479Z,215.67
2024-02-08T19:43:51.192Z,281.92
2024-02-08T19:46:20.750Z,261.80
2024-02-08T19:48:53.529Z,446.40
2024-02-08T19:51:26.084Z,249.35
2024-02-08T19:53:56.091Z,207.93
2024-02-08T19:56:23.861Z,172.40
2024-02-08T19:58:53.642Z,198.45
2024-02-08T20:01:24.265Z,130.38
2024-02-08T20:03:53.481Z,116.30
2024-02-08T20:06:22.499Z,105.72
2024-02-08T20:08:55.302Z,115.20
2024-02-08T20:11:24.738Z,110.80
2024-02-08T20:14:00.192Z,109.97
2024-02-08T20:16:36.708Z,103.15
2024-02-08T20:19:06.695Z,82.53
2024-02-08T20:21:33.196Z,86.43
2024-02-08T20:24:01.400Z,99.82
2024-02-08T20:26:30.077Z,102.57
2024-02-08T20:28:56.521Z,96.70
2024-02-08T20:31:25.601Z,95.30
2024-02-08T20:33:55.533Z,95.30
2024-02-08T20:36:22.743Z,82.32
2024-02-08T20:38:54.504Z,91.88
2024-02-08T20:41:25.127Z,104.72
2024-02-08T20:44:08.441Z,92.10
2024-02-08T20:46:36.338Z,76.45
2024-02-08T20:49:04.700Z,78.68
2024-02-08T20:51:34.184Z,81.88
2024-02-08T20:54:06.183Z,86.40
2024-02-08T20:56:37.687Z,78.78
2024-02-08T20:59:11.771Z,86.82
2024-02-08T21:01:38.274Z,78.53
2024-02-08T21:04:08.692Z,90.68
2024-02-08T21:06:35.573Z,90.05
2024-02-08T21:09:08.109Z,94.40
2024-02-08T21:11:37.690Z,97.10
2024-02-08T21:14:05.078Z,94.55
2024-02-08T21:16:31.762Z,100.97
2024-02-08T21:18:58.352Z,93.97
2024-02-08T21:21:25.022Z,102.15
2024-02-08T21:23:55.317Z,98.45
2024-02-08T21:26:22.971Z,93.68
2024-02-08T21:28:52.261Z,100.18
2024-02-08T21:31:20.048Z,90.57
2024-02-08T21:33:48.925Z,90.13
2024-02-08T21:36:16.723Z,94.20
2024-02-08T21:38:50.197Z,81.20
2024-02-08T21:41:17.183Z,78.47
2024-02-08T21:43:44.539Z,79.72
2024-02-08T21:46:14.324Z,75.13
2024-02-08T21:48:45.126Z,75.25
2024-02-08T21:51:13.318Z,79.47
2024-02-08T21:53:39.932Z,75.05
2024-02-08T21:56:19.683Z,83.15
2024-02-08T21:58:47.506Z,83.05
2024-02-08T22:03:59.409Z,80.78
2024-02-08T22:06:26.363Z,91.25
2024-02-08T22:08:53.106Z,86.05
2024-02-08T22:11:19.698Z,88.63
2024-02-08T22:13:47.206Z,84.55
2024-02-08T22:16:17.030Z,81.65
2024-02-08T22:18:47.468Z,78.65
2024-02-08T22:21:18.175Z,76.93
2024-02-08T22:23:45.537Z,81.45
2024-02-08T22:26:13.925Z,79.47
2024-02-08T22:28:44.003Z,80.20
2024-02-08T22:31:12.425Z,73.20
2024-02-08T22:33:39.384Z,79.00
2024-02-08T22:36:07.919Z,77.03
2024-02-08T22:38:34.565Z,77.15
2024-02-08T22:41:01.668Z,79.47
2024-02-08T22:43:28.539Z,75.45
2024-02-08T22:45:56.102Z,78.57
2024-02-08T22:48:23.306Z,76.75
2024-02-08T22:50:52.455Z,84.97
2024-02-08T22:53:21.085Z,102.38
2024-02-08T22:55:52.093Z,86.78
2024-02-08T22:58:20.066Z,83.47
2024-02-08T23:00:50.867Z,86.63
2024-02-08T23:03:18.385Z,78.78
2024-02-08T23:05:46.959Z,81.88
2024-02-08T23:08:17.060Z,74.95
2024-02-08T23:10:43.845Z,76.75
2024-02-08T23:13:12.070Z,75.85
2024-02-08T23:15:45.759Z,71.28
2024-02-08T23:18:15.853Z,66.93
2024-02-08T23:20:44.724Z,62.80
2024-02-08T23:23:12.212Z,63.42
2024-02-08T23:25:40.911Z,61.47
2024-02-08T23:28:08.156Z,62.42
2024-02-08T23:30:34.861Z,63.20
2024-02-08T23:33:04.729Z,63.80
2024-02-08T23:35:31.824Z,62.90
2024-02-08T23:38:01.482Z,63.38
2024-02-08T23:40:29.497Z,64.32
2024-02-08T23:42:57.818Z,62.90
2024-02-08T23:45:29.265Z,65.38
2024-02-08T23:47:56.236Z,67.47
2024-02-08T23:50:25.236Z,71.03
2024-02-08T23:52:53.374Z,67.95
2024-02-08T23:55:24.451Z,68.68
2024-02-08T23:57:51.012Z,73.05
